sensor_id;sensor_type;location;lat;lon;timestamp;pressure;altitude;pressure_sealevel;temperature;humidity
5651;BME280;40241;52.684;9.758;2023-02-16T00:01:42;102108.56;;;5.26;61.90
5651;BME280;40241;52.684;9.758;2023-02-16T00:04:25;102112.47;;;5.25;62.08
5651;BME280;40241;52.684;9.758;2023-02-16T00:06:52;102111.78;;;5.21;61.77
5651;BME280;40241;52.684;9.758;2023-02-16T00:09:18;102113.38;;;5.18;62.29
5651;BME280;40241;52.684;9.758;2023-02-16T00:11:44;102114.16;;;5.19;61.71
5651;BME280;40241;52.684;9.758;2023-02-16T00:14:37;102114.97;;;5.16;62.09
5651;BME280;40241;52.684;9.758;2023-02-16T00:17:04;102122.47;;;5.12;62.14
5651;BME280;40241;52.684;9.758;2023-02-16T00:19:38;102114.72;;;5.10;62.08
5651;BME280;40241;52.684;9.758;2023-02-16T00:22:04;102122.13;;;5.10;62.37
5651;BME280;40241;52.684;9.758;2023-02-16T00:24:30;102104.28;;;5.05;61.99
5651;BME280;40241;52.684;9.758;2023-02-16T00:26:57;102099.66;;;5.02;62.15
5651;BME280;40241;52.684;9.758;2023-02-16T00:29:31;102097.78;;;4.99;62.47
5651;BME280;40241;52.684;9.758;2023-02-16T00:31:59;102102.09;;;4.97;62.29
5651;BME280;40241;52.684;9.758;2023-02-16T00:36:57;102106.38;;;4.98;62.08
5651;BME280;40241;52.684;9.758;2023-02-16T00:39:24;102092.75;;;4.98;62.45
5651;BME280;40241;52.684;9.758;2023-02-16T00:41:51;102087.69;;;4.96;62.43
5651;BME280;40241;52.684;9.758;2023-02-16T00:44:28;102084.97;;;4.96;62.36
5651;BME280;40241;52.684;9.758;2023-02-16T00:46:55;102093.94;;;4.97;62.43
5651;BME280;40241;52.684;9.758;2023-02-16T00:49:20;102090.78;;;4.98;62.47
5651;BME280;40241;52.684;9.758;2023-02-16T00:51:46;102097.00;;;4.99;62.42
5651;BME280;40241;52.684;9.758;2023-02-16T00:54:12;102097.00;;;4.99;62.25
5651;BME280;40241;52.684;9.758;2023-02-16T00:56:38;102105.63;;;4.97;62.24
5651;BME280;40241;52.684;9.758;2023-02-16T00:59:06;102096.66;;;4.97;62.18
5651;BME280;40241;52.684;9.758;2023-02-16T01:01:33;102097.47;;;4.94;62.32
5651;BME280;40241;52.684;9.758;2023-02-16T01:04:03;102091.69;;;4.92;62.08
5651;BME280;40241;52.684;9.758;2023-02-16T01:06:30;102091.31;;;4.90;61.95
5651;BME280;40241;52.684;9.758;2023-02-16T01:09:24;102087.91;;;4.86;62.08
5651;BME280;40241;52.684;9.758;2023-02-16T01:12:14;102086.78;;;4.83;62.27
5651;BME280;40241;52.684;9.758;2023-02-16T01:14:40;102077.06;;;4.82;62.52
5651;BME280;40241;52.684;9.758;2023-02-16T01:17:05;102076.28;;;4.82;62.00
5651;BME280;40241;52.684;9.758;2023-02-16T01:19:30;102088.38;;;4.81;62.43
5651;BME280;40241;52.684;9.758;2023-02-16T01:21:56;102087.53;;;4.84;62.46
5651;BME280;40241;52.684;9.758;2023-02-16T01:24:21;102089.09;;;4.85;62.24
5651;BME280;40241;52.684;9.758;2023-02-16T01:26:48;102079.03;;;4.82;62.22
5651;BME280;40241;52.684;9.758;2023-02-16T01:29:16;102083.34;;;4.79;62.32
5651;BME280;40241;52.684;9.758;2023-02-16T01:31:42;102089.56;;;4.80;62.32
5651;BME280;40241;52.684;9.758;2023-02-16T01:34:07;102086.06;;;4.79;62.26
5651;BME280;40241;52.684;9.758;2023-02-16T01:36:44;102080.63;;;4.79;62.50
5651;BME280;40241;52.684;9.758;2023-02-16T01:39:16;102081.09;;;4.74;62.29
5651;BME280;40241;52.684;9.758;2023-02-16T01:42:07;102088.16;;;4.72;62.51
5651;BME280;40241;52.684;9.758;2023-02-16T01:44:40;102074.16;;;4.70;62.60
5651;BME280;40241;52.684;9.758;2023-02-16T01:47:30;102080.47;;;4.67;62.60
5651;BME280;40241;52.684;9.758;2023-02-16T01:49:57;102075.84;;;4.64;62.57
5651;BME280;40241;52.684;9.758;2023-02-16T01:52:33;102066.13;;;4.63;62.72
5651;BME280;40241;52.684;9.758;2023-02-16T01:55:10;102058.78;;;4.60;62.57
5651;BME280;40241;52.684;9.758;2023-02-16T01:57:50;102077.16;;;4.55;62.89
5651;BME280;40241;52.684;9.758;2023-02-16T02:00:26;102054.22;;;4.53;62.55
5651;BME280;40241;52.684;9.758;2023-02-16T02:02:59;102071.00;;;4.51;62.54
5651;BME280;40241;52.684;9.758;2023-02-16T02:05:46;102064.00;;;4.50;62.62
5651;BME280;40241;52.684;9.758;2023-02-16T02:08:17;102067.91;;;4.49;62.69
5651;BME280;40241;52.684;9.758;2023-02-16T02:10:56;102059.03;;;4.45;62.53
5651;BME280;40241;52.684;9.758;2023-02-16T02:13:43;102067.22;;;4.45;62.47
5651;BME280;40241;52.684;9.758;2023-02-16T02:16:10;102065.31;;;4.42;62.59
5651;BME280;40241;52.684;9.758;2023-02-16T02:18:36;102053.72;;;4.38;62.64
5651;BME280;40241;52.684;9.758;2023-02-16T02:27:24;102048.09;;;4.26;62.57
5651;BME280;40241;52.684;9.758;2023-02-16T02:38:31;102047.00;;;4.20;62.60
5651;BME280;40241;52.684;9.758;2023-02-16T02:43:51;102047.13;;;4.13;62.47
5651;BME280;40241;52.684;9.758;2023-02-16T02:46:25;102051.81;;;4.12;62.70
5651;BME280;40241;52.684;9.758;2023-02-16T02:48:51;102065.44;;;4.12;62.90
5651;BME280;40241;52.684;9.758;2023-02-16T02:51:16;102051.81;;;4.12;62.43
5651;BME280;40241;52.684;9.758;2023-02-16T02:54:02;102054.19;;;4.10;62.81
5651;BME280;40241;52.684;9.758;2023-02-16T02:59:36;102060.06;;;4.05;62.62
5651;BME280;40241;52.684;9.758;2023-02-16T03:02:23;102057.81;;;4.00;62.91
5651;BME280;40241;52.684;9.758;2023-02-16T03:04:51;102048.13;;;3.99;62.79
5651;BME280;40241;52.684;9.758;2023-02-16T03:07:19;102053.56;;;3.99;62.76
5651;BME280;40241;52.684;9.758;2023-02-16T03:10:07;102050.84;;;3.99;62.58
5651;BME280;40241;52.684;9.758;2023-02-16T03:12:53;102049.28;;;3.98;62.63
5651;BME280;40241;52.684;9.758;2023-02-16T03:15:21;102040.72;;;4.00;62.81
5651;BME280;40241;52.684;9.758;2023-02-16T03:17:49;102039.94;;;3.99;62.95
5651;BME280;40241;52.684;9.758;2023-02-16T03:20:33;102037.63;;;3.98;62.74
5651;BME280;40241;52.684;9.758;2023-02-16T03:23:17;102034.53;;;3.96;62.61
5651;BME280;40241;52.684;9.758;2023-02-16T03:26:01;102043.13;;;3.94;63.01
5651;BME280;40241;52.684;9.758;2023-02-16T03:28:46;102038.13;;;3.93;62.98
5651;BME280;40241;52.684;9.758;2023-02-16T03:31:33;102034.63;;;3.92;63.02
5651;BME280;40241;52.684;9.758;2023-02-16T03:34:00;102040.84;;;3.93;62.62
5651;BME280;40241;52.684;9.758;2023-02-16T03:36:28;102040.06;;;3.92;62.82
5651;BME280;40241;52.684;9.758;2023-02-16T03:38:56;102038.88;;;3.93;62.96
5651;BME280;40241;52.684;9.758;2023-02-16T03:41:23;102043.19;;;3.91;62.86
5651;BME280;40241;52.684;9.758;2023-02-16T03:43:48;102043.94;;;3.91;62.69
5651;BME280;40241;52.684;9.758;2023-02-16T03:46:14;102034.69;;;3.89;62.83
5651;BME280;40241;52.684;9.758;2023-02-16T03:48:39;102039.78;;;3.87;62.76
5651;BME280;40241;52.684;9.758;2023-02-16T03:51:05;102056.09;;;3.87;62.69
5651;BME280;40241;52.684;9.758;2023-02-16T03:53:30;102033.19;;;3.84;62.49
5651;BME280;40241;52.684;9.758;2023-02-16T03:55:55;102032.41;;;3.84;63.05
5651;BME280;40241;52.684;9.758;2023-02-16T03:58:22;102025.41;;;3.83;63.08
5651;BME280;40241;52.684;9.758;2023-02-16T04:00:49;102027.38;;;3.82;62.77
5651;BME280;40241;52.684;9.758;2023-02-16T04:03:15;102029.34;;;3.82;63.00
5651;BME280;40241;52.684;9.758;2023-02-16T04:05:41;102027.78;;;3.80;62.78
5651;BME280;40241;52.684;9.758;2023-02-16T04:08:07;102015.38;;;3.79;62.96
5651;BME280;40241;52.684;9.758;2023-02-16T04:10:33;102023.94;;;3.78;62.71
5651;BME280;40241;52.684;9.758;2023-02-16T04:12:58;102015.41;;;3.76;62.87
5651;BME280;40241;52.684;9.758;2023-02-16T04:15:26;102021.63;;;3.76;62.86
5651;BME280;40241;52.684;9.758;2023-02-16T04:17:52;102018.13;;;3.76;62.86
5651;BME280;40241;52.684;9.758;2023-02-16T04:20:20;102018.47;;;3.78;62.93
5651;BME280;40241;52.684;9.758;2023-02-16T04:22:46;102017.75;;;3.77;62.71
5651;BME280;40241;52.684;9.758;2023-02-16T04:25:12;102015.41;;;3.76;62.88
5651;BME280;40241;52.684;9.758;2023-02-16T04:27:38;102010.75;;;3.76;62.79
5651;BME280;40241;52.684;9.758;2023-02-16T04:30:05;102004.16;;;3.74;62.79
5651;BME280;40241;52.684;9.758;2023-02-16T04:32:31;101990.97;;;3.72;63.13
5651;BME280;40241;52.684;9.758;2023-02-16T04:34:57;101986.69;;;3.71;62.92
5651;BME280;40241;52.684;9.758;2023-02-16T04:37:22;101996.47;;;3.69;62.99
5651;BME280;40241;52.684;9.758;2023-02-16T04:39:47;101989.50;;;3.68;63.12
5651;BME280;40241;52.684;9.758;2023-02-16T04:42:13;101989.91;;;3.66;63.12
5651;BME280;40241;52.684;9.758;2023-02-16T04:44:38;102001.97;;;3.65;63.15
5651;BME280;40241;52.684;9.758;2023-02-16T04:47:04;101991.44;;;3.67;63.16
5651;BME280;40241;52.684;9.758;2023-02-16T04:49:29;101992.22;;;3.68;63.14
5651;BME280;40241;52.684;9.758;2023-02-16T04:51:55;101989.13;;;3.66;63.10
5651;BME280;40241;52.684;9.758;2023-02-16T04:54:20;101984.84;;;3.65;63.14
5651;BME280;40241;52.684;9.758;2023-02-16T04:56:46;101982.13;;;3.65;63.07
5651;BME280;40241;52.684;9.758;2023-02-16T04:59:12;101986.84;;;3.64;63.19
5651;BME280;40241;52.684;9.758;2023-02-16T05:01:38;101989.94;;;3.63;63.17
5651;BME280;40241;52.684;9.758;2023-02-16T05:04:04;102007.84;;;3.60;63.30
5651;BME280;40241;52.684;9.758;2023-02-16T05:06:29;101995.03;;;3.61;63.12
5651;BME280;40241;52.684;9.758;2023-02-16T05:08:54;102011.34;;;3.61;63.24
5651;BME280;40241;52.684;9.758;2023-02-16T05:11:20;102002.41;;;3.60;63.33
5651;BME280;40241;52.684;9.758;2023-02-16T05:14:04;101997.41;;;3.59;63.22
5651;BME280;40241;52.684;9.758;2023-02-16T05:16:48;101995.13;;;3.54;63.49
5651;BME280;40241;52.684;9.758;2023-02-16T05:19:13;101995.50;;;3.56;63.22
5651;BME280;40241;52.684;9.758;2023-02-16T05:21:38;101995.09;;;3.57;63.37
5651;BME280;40241;52.684;9.758;2023-02-16T05:24:08;101997.75;;;3.61;63.28
5651;BME280;40241;52.684;9.758;2023-02-16T05:26:35;102000.47;;;3.61;63.15
5651;BME280;40241;52.684;9.758;2023-02-16T05:29:01;102002.84;;;3.59;63.12
5651;BME280;40241;52.684;9.758;2023-02-16T05:31:27;102000.94;;;3.56;63.17
5651;BME280;40241;52.684;9.758;2023-02-16T05:33:53;102013.81;;;3.52;63.15
5651;BME280;40241;52.684;9.758;2023-02-16T05:36:19;102014.22;;;3.50;63.39
5651;BME280;40241;52.684;9.758;2023-02-16T05:38:44;102022.03;;;3.48;63.32
5651;BME280;40241;52.684;9.758;2023-02-16T05:41:10;102006.13;;;3.47;63.55
5651;BME280;40241;52.684;9.758;2023-02-16T05:43:36;102020.53;;;3.44;63.39
5651;BME280;40241;52.684;9.758;2023-02-16T05:46:08;102004.94;;;3.48;63.57
5651;BME280;40241;52.684;9.758;2023-02-16T05:48:33;102016.19;;;3.50;63.43
5651;BME280;40241;52.684;9.758;2023-02-16T05:50:58;102030.56;;;3.50;63.50
5651;BME280;40241;52.684;9.758;2023-02-16T05:53:24;102025.47;;;3.52;63.40
5651;BME280;40241;52.684;9.758;2023-02-16T05:55:49;102018.09;;;3.53;63.42
5651;BME280;40241;52.684;9.758;2023-02-16T05:58:14;102006.50;;;3.49;63.48
5651;BME280;40241;52.684;9.758;2023-02-16T06:00:39;102010.38;;;3.48;63.45
5651;BME280;40241;52.684;9.758;2023-02-16T06:03:05;102024.34;;;3.50;63.75
5651;BME280;40241;52.684;9.758;2023-02-16T06:05:30;102002.56;;;3.50;63.47
5651;BME280;40241;52.684;9.758;2023-02-16T06:07:55;102011.94;;;3.49;63.53
5651;BME280;40241;52.684;9.758;2023-02-16T06:10:21;102011.88;;;3.52;63.62
5651;BME280;40241;52.684;9.758;2023-02-16T06:12:46;102009.50;;;3.54;63.54
5651;BME280;40241;52.684;9.758;2023-02-16T06:15:11;102011.84;;;3.56;63.46
5651;BME280;40241;52.684;9.758;2023-02-16T06:17:37;102013.00;;;3.55;63.70
5651;BME280;40241;52.684;9.758;2023-02-16T06:20:03;102009.16;;;3.52;63.56
5651;BME280;40241;52.684;9.758;2023-02-16T06:22:29;102009.16;;;3.52;63.59
5651;BME280;40241;52.684;9.758;2023-02-16T06:24:54;102015.72;;;3.55;63.58
5651;BME280;40241;52.684;9.758;2023-02-16T06:27:19;102012.19;;;3.58;63.49
5651;BME280;40241;52.684;9.758;2023-02-16T06:29:45;102016.44;;;3.59;63.41
5651;BME280;40241;52.684;9.758;2023-02-16T06:32:10;102014.91;;;3.58;63.67
5651;BME280;40241;52.684;9.758;2023-02-16T06:34:36;102019.56;;;3.57;63.59
5651;BME280;40241;52.684;9.758;2023-02-16T06:37:01;102019.16;;;3.59;63.56
5651;BME280;40241;52.684;9.758;2023-02-16T06:39:26;102016.44;;;3.59;63.63
5651;BME280;40241;52.684;9.758;2023-02-16T06:41:52;102021.06;;;3.62;63.69
5651;BME280;40241;52.684;9.758;2023-02-16T06:44:17;102013.25;;;3.64;63.59
5651;BME280;40241;52.684;9.758;2023-02-16T06:46:44;102006.63;;;3.65;63.47
5651;BME280;40241;52.684;9.758;2023-02-16T06:49:15;102013.25;;;3.64;63.53
5651;BME280;40241;52.684;9.758;2023-02-16T06:51:42;102008.59;;;3.64;63.79
5651;BME280;40241;52.684;9.758;2023-02-16T06:54:07;102013.56;;;3.69;63.51
5651;BME280;40241;52.684;9.758;2023-02-16T06:56:33;102022.84;;;3.72;63.60
5651;BME280;40241;52.684;9.758;2023-02-16T06:58:58;102016.25;;;3.73;63.80
5651;BME280;40241;52.684;9.758;2023-02-16T07:01:23;102015.41;;;3.76;63.95
5651;BME280;40241;52.684;9.758;2023-02-16T07:03:51;102021.63;;;3.76;63.82
5651;BME280;40241;52.684;9.758;2023-02-16T07:06:18;102011.06;;;3.82;63.81
5651;BME280;40241;52.684;9.758;2023-02-16T07:08:43;102020.72;;;3.87;63.83
5651;BME280;40241;52.684;9.758;2023-02-16T07:11:09;102015.97;;;3.91;64.06
5651;BME280;40241;52.684;9.758;2023-02-16T07:13:34;102017.47;;;3.95;63.89
5651;BME280;40241;52.684;9.758;2023-02-16T07:16:02;102020.47;;;4.01;63.87
5651;BME280;40241;52.684;9.758;2023-02-16T07:18:27;102021.97;;;4.05;63.84
5651;BME280;40241;52.684;9.758;2023-02-16T07:20:52;102038.72;;;4.04;63.74
5651;BME280;40241;52.684;9.758;2023-02-16T07:23:17;102014.06;;;4.11;64.03
5651;BME280;40241;52.684;9.758;2023-02-16T07:25:43;102015.19;;;4.13;63.77
5651;BME280;40241;52.684;9.758;2023-02-16T07:28:08;102026.81;;;4.17;63.88
5651;BME280;40241;52.684;9.758;2023-02-16T07:30:34;102003.03;;;4.21;64.03
5651;BME280;40241;52.684;9.758;2023-02-16T07:33:00;102010.34;;;4.24;63.94
5651;BME280;40241;52.684;9.758;2023-02-16T07:35:25;102039.78;;;4.33;64.21
5651;BME280;40241;52.684;9.758;2023-02-16T07:37:50;102017.59;;;4.34;63.87
5651;BME280;40241;52.684;9.758;2023-02-16T07:40:16;102015.56;;;4.38;63.97
5651;BME280;40241;52.684;9.758;2023-02-16T07:42:41;102018.91;;;4.46;64.17
5651;BME280;40241;52.684;9.758;2023-02-16T07:45:07;102028.91;;;4.52;64.06
5651;BME280;40241;52.684;9.758;2023-02-16T07:47:32;102031.53;;;4.60;64.00
5651;BME280;40241;52.684;9.758;2023-02-16T07:49:57;102029.44;;;4.67;64.09
5651;BME280;40241;52.684;9.758;2023-02-16T07:52:23;102033.28;;;4.70;64.27
5651;BME280;40241;52.684;9.758;2023-02-16T07:54:55;102028.03;;;4.79;64.13
5651;BME280;40241;52.684;9.758;2023-02-16T07:57:20;102025.97;;;4.86;63.96
5651;BME280;40241;52.684;9.758;2023-02-16T07:59:46;102020.72;;;4.95;64.30
5651;BME280;40241;52.684;9.758;2023-02-16T08:02:15;102019.72;;;5.05;64.59
5651;BME280;40241;52.684;9.758;2023-02-16T08:04:41;102027.22;;;5.21;64.78
5651;BME280;40241;52.684;9.758;2023-02-16T08:07:12;102025.72;;;5.36;64.77
5651;BME280;40241;52.684;9.758;2023-02-16T08:09:38;102031.56;;;5.54;64.76
5651;BME280;40241;52.684;9.758;2023-02-16T08:12:07;102019.47;;;5.71;64.47
5651;BME280;40241;52.684;9.758;2023-02-16T08:14:33;102018.31;;;5.88;64.70
5651;BME280;40241;52.684;9.758;2023-02-16T08:16:58;102022.91;;;6.07;64.66
5651;BME280;40241;52.684;9.758;2023-02-16T08:19:24;102022.91;;;6.24;64.67
5651;BME280;40241;52.684;9.758;2023-02-16T08:21:49;102027.50;;;6.43;64.61
5651;BME280;40241;52.684;9.758;2023-02-16T08:24:15;102023.84;;;6.62;64.80
5651;BME280;40241;52.684;9.758;2023-02-16T08:26:41;102022.97;;;6.81;64.18
5651;BME280;40241;52.684;9.758;2023-02-16T08:29:08;102023.66;;;6.98;64.27
5651;BME280;40241;52.684;9.758;2023-02-16T08:31:40;102029.09;;;7.14;64.08
5651;BME280;40241;52.684;9.758;2023-02-16T08:34:06;102006.75;;;7.28;64.07
5651;BME280;40241;52.684;9.758;2023-02-16T08:36:36;102007.97;;;7.39;63.77
5651;BME280;40241;52.684;9.758;2023-02-16T08:39:22;102004.91;;;7.50;63.83
5651;BME280;40241;52.684;9.758;2023-02-16T08:41:49;102014.78;;;7.60;63.66
5651;BME280;40241;52.684;9.758;2023-02-16T08:44:16;102016.88;;;7.69;63.78
5651;BME280;40241;52.684;9.758;2023-02-16T08:46:45;102016.53;;;7.79;63.67
5651;BME280;40241;52.684;9.758;2023-02-16T08:49:12;102024.97;;;7.85;63.68
5651;BME280;40241;52.684;9.758;2023-02-16T08:51:44;102017.72;;;7.91;63.40
5651;BME280;40241;52.684;9.758;2023-02-16T08:54:15;102018.25;;;7.98;63.51
5651;BME280;40241;52.684;9.758;2023-02-16T08:56:41;102020.78;;;8.05;63.30
5651;BME280;40241;52.684;9.758;2023-02-16T08:59:10;102011.44;;;8.15;63.27
5651;BME280;40241;52.684;9.758;2023-02-16T09:01:35;102017.78;;;8.25;63.50
5651;BME280;40241;52.684;9.758;2023-02-16T09:04:00;102006.25;;;8.30;63.40
5651;BME280;40241;52.684;9.758;2023-02-16T09:06:26;102002.41;;;8.40;63.37
5651;BME280;40241;52.684;9.758;2023-02-16T09:08:55;102002.50;;;8.49;63.01
5651;BME280;40241;52.684;9.758;2023-02-16T09:11:22;102003.75;;;8.57;63.17
5651;BME280;40241;52.684;9.758;2023-02-16T09:13:48;102009.66;;;8.68;62.93
5651;BME280;40241;52.684;9.758;2023-02-16T09:16:19;102011.69;;;8.77;62.71
5651;BME280;40241;52.684;9.758;2023-02-16T09:18:45;102012.06;;;8.88;62.78
5651;BME280;40241;52.684;9.758;2023-02-16T09:21:19;102014.31;;;9.02;62.83
5651;BME280;40241;52.684;9.758;2023-02-16T09:23:47;102014.50;;;9.07;62.58
5651;BME280;40241;52.684;9.758;2023-02-16T09:26:15;102025.53;;;9.17;62.58
5651;BME280;40241;52.684;9.758;2023-02-16T09:28:41;102030.75;;;9.24;62.35
5651;BME280;40241;52.684;9.758;2023-02-16T09:33:44;102025.94;;;9.37;62.38
5651;BME280;40241;52.684;9.758;2023-02-16T09:36:11;102020.47;;;9.46;62.25
5651;BME280;40241;52.684;9.758;2023-02-16T09:38:38;102020.84;;;9.57;62.26
5651;BME280;40241;52.684;9.758;2023-02-16T09:46:17;102017.28;;;9.78;61.84
5651;BME280;40241;52.684;9.758;2023-02-16T09:48:46;102028.13;;;9.81;61.75
5651;BME280;40241;52.684;9.758;2023-02-16T09:51:24;102021.09;;;9.90;61.25
5651;BME280;40241;52.684;9.758;2023-02-16T09:53:58;102021.91;;;9.99;61.71
5651;BME280;40241;52.684;9.758;2023-02-16T09:56:39;102022.06;;;10.05;61.27
5651;BME280;40241;52.684;9.758;2023-02-16T10:01:55;102023.19;;;10.16;60.97
5651;BME280;40241;52.684;9.758;2023-02-16T10:04:44;102022.44;;;10.25;61.19
5651;BME280;40241;52.684;9.758;2023-02-16T10:07:33;102033.31;;;10.37;60.84
5651;BME280;40241;52.684;9.758;2023-02-16T10:10:05;102020.31;;;10.47;61.36
5651;BME280;40241;52.684;9.758;2023-02-16T10:12:36;102031.16;;;10.60;61.21
5651;BME280;40241;52.684;9.758;2023-02-16T10:15:06;102030.88;;;10.67;61.02
5651;BME280;40241;52.684;9.758;2023-02-16T10:17:40;102035.16;;;10.77;60.91
5651;BME280;40241;52.684;9.758;2023-02-16T10:20:15;102042.66;;;10.85;60.47
5651;BME280;40241;52.684;9.758;2023-02-16T10:22:52;102027.03;;;10.91;59.42
5651;BME280;40241;52.684;9.758;2023-02-16T10:27:51;102028.41;;;11.05;60.69
5651;BME280;40241;52.684;9.758;2023-02-16T10:30:21;102023.19;;;11.16;60.49
5651;BME280;40241;52.684;9.758;2023-02-16T10:35:28;102042.25;;;11.38;59.83
5651;BME280;40241;52.684;9.758;2023-02-16T10:38:07;102040.88;;;11.42;59.39
5651;BME280;40241;52.684;9.758;2023-02-16T10:46:01;102030.63;;;11.75;59.53
5651;BME280;40241;52.684;9.758;2023-02-16T10:48:27;102026.97;;;11.78;59.72
5651;BME280;40241;52.684;9.758;2023-02-16T10:53:51;102028.44;;;11.88;57.66
5651;BME280;40241;52.684;9.758;2023-02-16T10:59:41;102022.31;;;11.84;58.04
5651;BME280;40241;52.684;9.758;2023-02-16T11:02:18;102025.66;;;11.88;58.60
5651;BME280;40241;52.684;9.758;2023-02-16T11:04:47;102018.47;;;11.91;59.30
5651;BME280;40241;52.684;9.758;2023-02-16T11:07:16;102021.06;;;11.94;59.31
5651;BME280;40241;52.684;9.758;2023-02-16T11:09:45;102023.06;;;11.94;59.21
5651;BME280;40241;52.684;9.758;2023-02-16T11:14:39;102008.16;;;12.00;59.28
5651;BME280;40241;52.684;9.758;2023-02-16T11:17:14;102003.97;;;12.05;59.09
5651;BME280;40241;52.684;9.758;2023-02-16T11:19:56;101999.81;;;12.10;57.85
5651;BME280;40241;52.684;9.758;2023-02-16T11:24:50;102006.22;;;12.16;58.76
5651;BME280;40241;52.684;9.758;2023-02-16T11:27:20;101999.00;;;12.18;58.30
5651;BME280;40241;52.684;9.758;2023-02-16T11:29:46;102003.75;;;12.18;58.75
5651;BME280;40241;52.684;9.758;2023-02-16T11:32:14;102003.69;;;12.27;58.96
5651;BME280;40241;52.684;9.758;2023-02-16T11:34:50;102001.50;;;12.31;57.21
5651;BME280;40241;52.684;9.758;2023-02-16T11:37:31;101999.63;;;12.37;56.19
5651;BME280;40241;52.684;9.758;2023-02-16T11:40:18;101997.44;;;12.41;57.04
5651;BME280;40241;52.684;9.758;2023-02-16T11:42:48;101995.56;;;12.47;58.31
5651;BME280;40241;52.684;9.758;2023-02-16T11:45:32;101994.88;;;12.52;55.84
5651;BME280;40241;52.684;9.758;2023-02-16T11:48:07;101987.56;;;12.49;57.34
5651;BME280;40241;52.684;9.758;2023-02-16T11:50:38;101991.19;;;12.55;58.35
5651;BME280;40241;52.684;9.758;2023-02-16T11:53:35;101990.06;;;12.61;56.52
5651;BME280;40241;52.684;9.758;2023-02-16T11:56:36;101997.41;;;12.79;55.47
5651;BME280;40241;52.684;9.758;2023-02-16T12:04:48;101981.34;;;13.07;57.08
5651;BME280;40241;52.684;9.758;2023-02-16T12:07:26;101984.47;;;13.00;56.84
5651;BME280;40241;52.684;9.758;2023-02-16T12:15:29;101992.22;;;13.10;55.15
5651;BME280;40241;52.684;9.758;2023-02-16T12:18:22;101987.53;;;13.16;54.81
5651;BME280;40241;52.684;9.758;2023-02-16T12:23:54;101993.53;;;13.29;54.90
5651;BME280;40241;52.684;9.758;2023-02-16T12:26:48;101994.31;;;13.30;56.53
5651;BME280;40241;52.684;9.758;2023-02-16T12:29:38;101984.66;;;13.40;55.84
5651;BME280;40241;52.684;9.758;2023-02-16T12:39:54;101981.13;;;13.54;56.43
5651;BME280;40241;52.684;9.758;2023-02-16T12:43:00;101985.03;;;13.47;54.72
5651;BME280;40241;52.684;9.758;2023-02-16T12:45:31;101979.28;;;13.51;55.82
5651;BME280;40241;52.684;9.758;2023-02-16T12:50:41;101967.06;;;13.58;56.20
5651;BME280;40241;52.684;9.758;2023-02-16T12:53:16;101970.50;;;13.52;56.00
5651;BME280;40241;52.684;9.758;2023-02-16T12:55:50;101969.47;;;13.50;55.37
5651;BME280;40241;52.684;9.758;2023-02-16T12:58:21;101961.94;;;13.50;56.04
5651;BME280;40241;52.684;9.758;2023-02-16T13:00:54;101961.09;;;13.44;55.53
5651;BME280;40241;52.684;9.758;2023-02-16T13:03:43;101960.94;;;13.33;54.78
5651;BME280;40241;52.684;9.758;2023-02-16T13:11:47;101954.66;;;13.18;56.04
5651;BME280;40241;52.684;9.758;2023-02-16T13:14:19;101955.16;;;13.17;55.95
5651;BME280;40241;52.684;9.758;2023-02-16T13:16:51;101961.84;;;13.10;56.07
5651;BME280;40241;52.684;9.758;2023-02-16T13:19:18;101964.94;;;13.03;56.56
5651;BME280;40241;52.684;9.758;2023-02-16T13:24:34;101929.69;;;12.98;56.60
5651;BME280;40241;52.684;9.758;2023-02-16T13:32:53;101917.25;;;13.37;56.07
5651;BME280;40241;52.684;9.758;2023-02-16T13:43:42;101904.44;;;13.75;55.94
5651;BME280;40241;52.684;9.758;2023-02-16T13:46:27;101902.66;;;13.92;54.95
5651;BME280;40241;52.684;9.758;2023-02-16T13:48:55;101893.44;;;14.00;55.64
5651;BME280;40241;52.684;9.758;2023-02-16T13:51:23;101879.69;;;14.06;55.46
5651;BME280;40241;52.684;9.758;2023-02-16T13:53:56;101881.91;;;14.02;54.69
5651;BME280;40241;52.684;9.758;2023-02-16T13:58:54;101866.53;;;13.81;55.60
5651;BME280;40241;52.684;9.758;2023-02-16T14:04:00;101867.00;;;14.19;55.24
5651;BME280;40241;52.684;9.758;2023-02-16T14:14:29;101872.84;;;14.27;53.82
5651;BME280;40241;52.684;9.758;2023-02-16T14:22:38;101861.38;;;13.88;54.36
5651;BME280;40241;52.684;9.758;2023-02-16T14:27:55;101868.22;;;13.73;55.11
5651;BME280;40241;52.684;9.758;2023-02-16T14:33:04;101872.38;;;13.63;55.25
5651;BME280;40241;52.684;9.758;2023-02-16T14:35:43;101879.34;;;13.58;55.73
5651;BME280;40241;52.684;9.758;2023-02-16T14:38:32;101871.06;;;13.58;54.44
5651;BME280;40241;52.684;9.758;2023-02-16T14:41:00;101866.97;;;13.53;55.48
5651;BME280;40241;52.684;9.758;2023-02-16T14:43:41;101853.16;;;13.53;54.93
5651;BME280;40241;52.684;9.758;2023-02-16T14:46:44;101844.84;;;13.53;54.93
5651;BME280;40241;52.684;9.758;2023-02-16T14:49:27;101853.91;;;13.54;54.96
5651;BME280;40241;52.684;9.758;2023-02-16T14:57:52;101866.63;;;13.46;55.14
5651;BME280;40241;52.684;9.758;2023-02-16T15:00:37;101859.22;;;13.37;54.97
5651;BME280;40241;52.684;9.758;2023-02-16T15:03:23;101869.72;;;13.33;55.49
5651;BME280;40241;52.684;9.758;2023-02-16T15:06:19;101865.91;;;13.31;54.76
5651;BME280;40241;52.684;9.758;2023-02-16T15:08:52;101863.06;;;13.25;55.63
5651;BME280;40241;52.684;9.758;2023-02-16T15:11:46;101853.47;;;13.21;55.09
5651;BME280;40241;52.684;9.758;2023-02-16T15:14:36;101866.72;;;13.17;55.82
5651;BME280;40241;52.684;9.758;2023-02-16T15:17:05;101862.91;;;13.14;55.87
5651;BME280;40241;52.684;9.758;2023-02-16T15:19:31;101866.13;;;13.13;56.08
5651;BME280;40241;52.684;9.758;2023-02-16T15:22:20;101869.13;;;13.09;54.90
5651;BME280;40241;52.684;9.758;2023-02-16T15:25:00;101865.78;;;13.05;55.53
5651;BME280;40241;52.684;9.758;2023-02-16T15:27:27;101861.94;;;13.03;56.10
5651;BME280;40241;52.684;9.758;2023-02-16T15:30:14;101857.59;;;12.96;55.66
5651;BME280;40241;52.684;9.758;2023-02-16T15:32:54;101857.78;;;12.93;56.33
5651;BME280;40241;52.684;9.758;2023-02-16T15:35:23;101856.94;;;12.87;56.48
5651;BME280;40241;52.684;9.758;2023-02-16T15:38:01;101858.19;;;12.86;56.31
5651;BME280;40241;52.684;9.758;2023-02-16T15:40:28;101860.84;;;12.80;56.70